createdAt,value
2022-12-08T00:01:12.690Z,72.10
2022-12-08T00:03:40.240Z,72.00
2022-12-08T00:06:31.150Z,72.10
2022-12-08T00:09:16.488Z,72.20
2022-12-08T00:11:43.322Z,72.20
2022-12-08T00:14:10.216Z,72.30
2022-12-08T00:16:37.106Z,72.20
2022-12-08T00:19:04.091Z,72.20
2022-12-08T00:21:30.921Z,72.20
2022-12-08T00:23:57.812Z,72.20
2022-12-08T00:26:24.640Z,72.30
2022-12-08T00:28:51.436Z,72.40
2022-12-08T00:31:18.336Z,72.50
2022-12-08T00:33:45.291Z,72.50
2022-12-08T00:36:14.513Z,72.40
2022-12-08T00:38:41.904Z,72.40
2022-12-08T00:41:41.389Z,72.40
2022-12-08T00:44:08.833Z,72.40
2022-12-08T00:46:35.991Z,72.30
2022-12-08T00:49:04.214Z,72.40
2022-12-08T00:51:31.241Z,73.10
2022-12-08T00:53:58.050Z,72.30
2022-12-08T00:56:25.391Z,72.00
2022-12-08T00:58:52.248Z,71.90
2022-12-08T01:01:19.442Z,71.80
2022-12-08T01:03:46.415Z,71.60
2022-12-08T01:06:13.389Z,71.50
2022-12-08T01:08:41.117Z,71.40
2022-12-08T01:11:10.795Z,71.40
2022-12-08T01:13:38.808Z,71.30
2022-12-08T01:16:06.130Z,71.30
2022-12-08T01:18:33.533Z,71.40
2022-12-08T01:21:05.028Z,71.40
2022-12-08T01:23:32.418Z,71.40
2022-12-08T01:26:07.932Z,71.50
2022-12-08T01:28:34.947Z,71.70
2022-12-08T01:31:02.933Z,72.00
2022-12-08T01:33:29.932Z,72.20
2022-12-08T01:35:56.789Z,72.40
2022-12-08T01:38:23.655Z,72.60
2022-12-08T01:40:50.592Z,72.90
2022-12-08T01:43:19.836Z,73.00
2022-12-08T01:45:47.615Z,73.30
2022-12-08T01:48:23.653Z,73.30
2022-12-08T01:50:53.815Z,73.30
2022-12-08T01:53:26.747Z,73.40
2022-12-08T01:56:10.501Z,73.50
2022-12-08T01:58:46.934Z,74.60
2022-12-08T02:01:14.275Z,73.90
2022-12-08T02:03:55.508Z,74.00
2022-12-08T02:06:22.472Z,74.10
2022-12-08T02:08:50.812Z,74.30
2022-12-08T02:11:17.801Z,74.40
2022-12-08T02:13:47.287Z,74.40
2022-12-08T02:16:39.247Z,75.30
2022-12-08T02:19:44.735Z,74.30
2022-12-08T02:22:11.522Z,74.20
2022-12-08T02:24:50.162Z,74.10
2022-12-08T02:27:30.883Z,74.00
2022-12-08T02:30:21.849Z,74.00
2022-12-08T02:33:21.846Z,73.80
2022-12-08T02:36:15.825Z,73.70
2022-12-08T02:38:57.617Z,73.50
2022-12-08T02:41:41.666Z,73.40
2022-12-08T02:44:27.225Z,73.40
2022-12-08T02:46:59.313Z,73.40
2022-12-08T02:49:32.246Z,73.40
2022-12-08T02:52:14.317Z,73.40
2022-12-08T02:54:45.196Z,73.20
2022-12-08T02:57:36.632Z,73.10
2022-12-08T03:00:13.371Z,73.00
2022-12-08T03:03:03.649Z,73.10
2022-12-08T03:05:46.998Z,73.10
2022-12-08T03:08:34.070Z,73.00
2022-12-08T03:11:11.699Z,72.90
2022-12-08T03:13:46.128Z,72.60
2022-12-08T03:16:17.632Z,72.50
2022-12-08T03:18:49.831Z,72.50
2022-12-08T03:21:19.752Z,72.40
2022-12-08T03:23:49.317Z,72.40
2022-12-08T03:26:34.635Z,72.40
2022-12-08T03:29:01.602Z,72.40
2022-12-08T03:31:33.011Z,72.50
2022-12-08T03:34:01.475Z,72.70
2022-12-08T03:36:28.912Z,72.80
2022-12-08T03:38:55.770Z,72.90
2022-12-08T03:41:23.476Z,72.90
2022-12-08T03:43:53.023Z,73.00
2022-12-08T03:48:52.736Z,72.90
2022-12-08T03:51:19.725Z,72.90
2022-12-08T03:53:46.915Z,72.90
2022-12-08T03:56:19.417Z,72.90
2022-12-08T03:58:46.268Z,72.90
2022-12-08T04:01:13.526Z,73.00
2022-12-08T04:03:40.418Z,73.10
2022-12-08T04:06:07.660Z,73.20
2022-12-08T04:08:34.780Z,73.30
2022-12-08T04:11:01.883Z,73.30
2022-12-08T04:13:29.088Z,73.30
2022-12-08T04:15:55.998Z,73.10
2022-12-08T04:18:23.064Z,73.10
2022-12-08T04:20:50.007Z,73.00
2022-12-08T04:23:16.806Z,73.00
2022-12-08T04:25:43.892Z,72.80
2022-12-08T04:28:10.759Z,72.80
2022-12-08T04:30:37.652Z,72.70
2022-12-08T04:33:04.592Z,72.70
2022-12-08T04:35:31.789Z,72.60
2022-12-08T04:37:58.687Z,72.60
2022-12-08T04:40:25.646Z,72.60
2022-12-08T04:42:52.469Z,72.70
2022-12-08T04:45:19.397Z,72.70
2022-12-08T04:47:46.273Z,72.70
2022-12-08T04:50:13.370Z,72.60
2022-12-08T04:52:40.413Z,72.50
2022-12-08T04:55:07.476Z,72.60
2022-12-08T04:57:34.304Z,72.50
2022-12-08T05:00:01.366Z,72.70
2022-12-08T05:02:28.320Z,72.60
2022-12-08T05:04:55.253Z,72.60
2022-12-08T05:07:22.125Z,72.60
2022-12-08T05:09:48.910Z,72.60
2022-12-08T05:12:15.769Z,72.50
2022-12-08T05:14:42.596Z,72.60
2022-12-08T05:17:09.963Z,72.40
2022-12-08T05:19:37.116Z,72.50
2022-12-08T05:22:03.991Z,72.60
2022-12-08T05:24:30.823Z,72.50
2022-12-08T05:26:57.726Z,72.50
2022-12-08T05:29:24.729Z,72.50
2022-12-08T05:31:51.809Z,72.40
2022-12-08T05:34:18.701Z,72.30
2022-12-08T05:36:45.568Z,72.20
2022-12-08T05:39:15.997Z,72.20
2022-12-08T05:41:43.070Z,72.10
2022-12-08T05:44:10.094Z,72.20
2022-12-08T05:46:36.966Z,72.30
2022-12-08T05:49:04.272Z,72.20
2022-12-08T05:51:31.133Z,71.90
2022-12-08T05:53:58.171Z,71.70
2022-12-08T05:56:26.466Z,72.50
2022-12-08T05:58:53.319Z,71.30
2022-12-08T06:01:24.792Z,71.30
2022-12-08T06:03:52.424Z,71.10
2022-12-08T06:06:19.817Z,71.20
2022-12-08T06:08:46.731Z,71.10
2022-12-08T06:11:28.489Z,71.20
2022-12-08T06:13:56.808Z,71.10
2022-12-08T06:16:24.849Z,71.00
2022-12-08T06:18:51.937Z,70.90
2022-12-08T06:21:19.809Z,70.60
2022-12-08T06:23:51.850Z,70.40
2022-12-08T06:26:19.774Z,70.40
2022-12-08T06:28:46.969Z,70.40
2022-12-08T06:31:27.751Z,70.30
2022-12-08T06:33:55.206Z,70.20
2022-12-08T06:36:25.692Z,70.30
2022-12-08T06:38:52.810Z,70.20
2022-12-08T06:41:19.784Z,70.00
2022-12-08T06:43:46.657Z,69.80
2022-12-08T06:46:16.814Z,69.40
2022-12-08T06:48:44.163Z,68.90
2022-12-08T06:51:16.964Z,68.90
2022-12-08T06:53:44.156Z,68.90
2022-12-08T06:56:12.584Z,68.90
2022-12-08T06:58:39.486Z,69.10
2022-12-08T07:01:13.521Z,69.40
2022-12-08T07:03:41.134Z,69.40
2022-12-08T07:06:17.436Z,69.50
2022-12-08T07:08:44.416Z,69.60
2022-12-08T07:11:15.300Z,69.70
2022-12-08T07:13:45.198Z,69.90
2022-12-08T07:16:12.632Z,70.00
2022-12-08T07:18:39.979Z,70.10
2022-12-08T07:21:11.257Z,70.20
2022-12-08T07:23:38.354Z,70.20
2022-12-08T07:26:07.765Z,70.20
2022-12-08T07:28:36.266Z,70.20
2022-12-08T07:31:04.272Z,70.20
2022-12-08T07:33:32.461Z,70.40
2022-12-08T07:36:04.845Z,70.20
2022-12-08T07:38:32.198Z,70.20
2022-12-08T07:40:59.557Z,70.40
2022-12-08T07:43:26.412Z,70.50
2022-12-08T07:45:53.319Z,70.40
2022-12-08T07:48:20.504Z,70.50
2022-12-08T07:50:47.949Z,70.60
2022-12-08T07:53:15.041Z,70.70
2022-12-08T07:55:43.173Z,70.80
2022-12-08T07:58:10.905Z,70.60
2022-12-08T08:00:37.890Z,70.70
2022-12-08T08:03:04.968Z,70.70
2022-12-08T08:05:32.017Z,70.90
2022-12-08T08:07:58.900Z,71.00
2022-12-08T08:10:26.034Z,71.10
2022-12-08T08:12:52.909Z,71.20
2022-12-08T08:15:21.251Z,71.20
2022-12-08T08:17:51.824Z,71.10
2022-12-08T08:20:19.747Z,71.30
2022-12-08T08:22:50.917Z,71.40
2022-12-08T08:25:19.562Z,71.30
2022-12-08T08:27:46.793Z,71.40
2022-12-08T08:30:19.914Z,71.40
2022-12-08T08:32:48.088Z,71.40
2022-12-08T08:35:15.026Z,71.40
2022-12-08T08:37:45.733Z,71.60
2022-12-08T08:40:15.765Z,71.70
2022-12-08T08:42:44.145Z,71.70
2022-12-08T08:45:11.463Z,71.70
2022-12-08T08:47:38.319Z,71.80
2022-12-08T08:50:06.006Z,71.90
2022-12-08T08:52:33.153Z,71.60
2022-12-08T08:55:00.042Z,71.60
2022-12-08T08:57:26.927Z,71.80
2022-12-08T08:59:54.386Z,71.80
2022-12-08T09:02:21.854Z,71.80
2022-12-08T09:04:49.141Z,71.60
2022-12-08T09:07:16.594Z,71.70
2022-12-08T09:09:43.813Z,71.80
2022-12-08T09:12:11.315Z,71.90
2022-12-08T09:14:38.298Z,71.80
2022-12-08T09:17:05.702Z,71.50
2022-12-08T09:19:33.114Z,71.40
2022-12-08T09:22:00.053Z,71.40
2022-12-08T09:24:27.145Z,71.50
2022-12-08T09:26:54.090Z,71.60
2022-12-08T09:29:21.011Z,71.70
2022-12-08T09:31:47.993Z,71.80
2022-12-08T09:34:14.882Z,71.80
2022-12-08T09:36:41.797Z,72.10
2022-12-08T09:39:09.010Z,72.10
2022-12-08T09:42:04.051Z,72.20
2022-12-08T09:44:59.945Z,72.30
2022-12-08T09:47:36.410Z,72.20
2022-12-08T09:50:17.015Z,72.20
2022-12-08T09:53:13.495Z,72.00
2022-12-08T09:55:50.893Z,71.90
2022-12-08T09:58:35.868Z,71.70
2022-12-08T10:01:05.635Z,71.40
2022-12-08T10:03:33.015Z,71.20
2022-12-08T10:06:27.823Z,70.80
2022-12-08T10:09:22.996Z,70.80
2022-12-08T10:12:22.372Z,71.20
2022-12-08T10:15:19.254Z,70.90
2022-12-08T10:17:49.506Z,70.90
2022-12-08T10:20:21.866Z,70.70
2022-12-08T10:23:10.421Z,70.80
2022-12-08T10:25:46.749Z,71.10
2022-12-08T10:28:14.113Z,71.10
2022-12-08T10:30:41.126Z,71.20
2022-12-08T10:33:19.821Z,71.60
2022-12-08T10:35:58.538Z,71.80
2022-12-08T10:38:36.919Z,71.60
2022-12-08T10:41:06.625Z,71.90
2022-12-08T10:43:34.173Z,71.60
2022-12-08T10:46:13.224Z,71.70
2022-12-08T10:48:55.186Z,71.90
2022-12-08T10:51:29.723Z,72.00
2022-12-08T10:53:57.124Z,71.50
2022-12-08T10:56:33.391Z,71.40
2022-12-08T10:59:19.494Z,71.20
2022-12-08T11:01:51.836Z,71.40
2022-12-08T11:04:38.435Z,71.60
2022-12-08T11:07:08.995Z,71.40
2022-12-08T11:09:38.858Z,71.40
2022-12-08T11:12:22.387Z,71.30
2022-12-08T11:15:01.409Z,71.20
2022-12-08T11:17:35.687Z,71.30
2022-12-08T11:20:19.335Z,71.20
2022-12-08T11:22:55.095Z,71.20
2022-12-08T11:25:27.774Z,71.10
2022-12-08T11:27:58.943Z,71.10
2022-12-08T11:30:31.126Z,70.80
2022-12-08T11:33:05.515Z,70.10
2022-12-08T11:35:39.167Z,69.80
2022-12-08T11:38:21.266Z,70.10
2022-12-08T11:40:52.845Z,70.20
2022-12-08T11:43:34.732Z,69.80
2022-12-08T11:46:09.878Z,69.90
2022-12-08T11:48:46.282Z,69.90
2022-12-08T11:51:37.677Z,69.90
2022-12-08T11:54:11.528Z,69.70
2022-12-08T11:56:42.884Z,69.80
2022-12-08T11:59:49.705Z,70.10
2022-12-08T12:02:25.146Z,70.60
2022-12-08T12:05:00.817Z,70.40
2022-12-08T12:07:33.498Z,70.80
2022-12-08T12:10:10.334Z,71.20
2022-12-08T12:13:14.209Z,71.40
2022-12-08T12:16:03.136Z,71.40
2022-12-08T12:18:46.475Z,71.60
2022-12-08T12:21:19.513Z,71.60
2022-12-08T12:23:59.117Z,71.80
2022-12-08T12:26:29.691Z,72.00
2022-12-08T12:29:18.208Z,71.90
2022-12-08T12:31:53.494Z,71.90
2022-12-08T12:34:32.845Z,71.60
2022-12-08T12:37:10.202Z,71.70
2022-12-08T12:39:55.331Z,71.40
2022-12-08T12:42:37.574Z,71.40
2022-12-08T12:45:16.394Z,71.00
2022-12-08T12:48:13.268Z,71.10
2022-12-08T12:50:46.492Z,71.20
2022-12-08T12:53:16.106Z,71.30
2022-12-08T12:55:46.070Z,71.40
2022-12-08T12:58:28.220Z,71.40
2022-12-08T13:01:10.511Z,71.60
2022-12-08T13:03:41.554Z,71.90
2022-12-08T13:06:14.591Z,72.10
2022-12-08T13:08:52.368Z,72.20
2022-12-08T13:11:19.490Z,72.10
2022-12-08T13:14:05.292Z,72.20
2022-12-08T13:16:35.083Z,72.10
2022-12-08T13:19:06.058Z,72.00
2022-12-08T13:21:42.309Z,71.90
2022-12-08T13:24:17.782Z,71.80
2022-12-08T13:26:45.535Z,71.90
2022-12-08T13:29:15.497Z,71.90
2022-12-08T13:31:50.611Z,72.10
2022-12-08T13:34:21.146Z,71.90
2022-12-08T13:37:15.818Z,72.00
2022-12-08T13:39:49.758Z,71.90
2022-12-08T13:42:22.207Z,71.80
2022-12-08T13:45:22.283Z,71.90
2022-12-08T13:48:56.215Z,71.70
2022-12-08T13:55:49.729Z,71.70
2022-12-08T13:57:27.538Z,71.80
2022-12-08T13:59:54.436Z,71.80
2022-12-08T14:02:28.517Z,71.50
2022-12-08T14:07:44.589Z,71.20
2022-12-08T14:10:19.530Z,70.90
2022-12-08T14:12:48.464Z,70.60
2022-12-08T14:15:16.351Z,70.60
2022-12-08T14:17:55.356Z,70.60
2022-12-08T14:20:51.809Z,70.60
2022-12-08T14:23:21.190Z,70.60
2022-12-08T14:25:48.655Z,70.60
2022-12-08T14:28:15.576Z,70.70
2022-12-08T14:30:42.798Z,70.60
2022-12-08T14:33:15.445Z,70.60
2022-12-08T14:35:42.393Z,70.70
2022-12-08T14:38:15.089Z,70.70
2022-12-08T14:41:05.751Z,70.70
2022-12-08T14:43:33.244Z,70.70
2022-12-08T14:46:18.219Z,70.80
2022-12-08T14:48:45.179Z,70.90
2022-12-08T14:51:21.145Z,71.90
2022-12-08T14:53:55.343Z,71.20
2022-12-08T14:56:36.644Z,71.40
2022-12-08T14:59:12.507Z,71.40
2022-12-08T15:01:40.608Z,71.60
2022-12-08T15:04:12.686Z,71.60
2022-12-08T15:06:51.410Z,71.60
2022-12-08T15:09:34.831Z,71.60
2022-12-08T15:12:27.545Z,71.90
2022-12-08T15:14:59.121Z,71.60
2022-12-08T15:17:31.981Z,71.30
2022-12-08T15:20:00.243Z,71.10
2022-12-08T15:22:29.519Z,70.80
2022-12-08T15:24:57.053Z,70.60
2022-12-08T15:27:25.644Z,70.80
2022-12-08T15:29:52.693Z,70.70
2022-12-08T15:32:21.999Z,70.70
2022-12-08T15:34:49.448Z,70.60
2022-12-08T15:37:24.674Z,70.60
2022-12-08T15:39:52.010Z,70.50
2022-12-08T15:42:19.116Z,70.40
2022-12-08T15:44:46.187Z,70.10
2022-12-08T15:47:21.177Z,69.90
2022-12-08T15:49:49.773Z,69.80
2022-12-08T15:52:22.622Z,70.00
2022-12-08T15:54:49.911Z,69.80
2022-12-08T15:58:44.504Z,69.70
2022-12-08T16:00:53.813Z,69.80
2022-12-08T16:04:14.242Z,70.30
2022-12-08T16:09:28.359Z,71.10
2022-12-08T16:12:14.811Z,71.40
2022-12-08T16:17:31.622Z,71.70
2022-12-08T16:19:58.967Z,71.90
2022-12-08T16:25:20.686Z,71.70
2022-12-08T16:28:00.637Z,71.60
2022-12-08T16:30:30.314Z,71.40
2022-12-08T16:32:57.185Z,71.10
2022-12-08T16:35:24.186Z,70.80
2022-12-08T16:37:51.021Z,70.60
2022-12-08T16:40:17.958Z,70.50
2022-12-08T16:42:45.876Z,70.60
2022-12-08T16:45:25.252Z,70.80
2022-12-08T16:47:57.313Z,71.00
2022-12-08T16:50:32.681Z,71.00
2022-12-08T16:53:05.897Z,71.10
2022-12-08T16:55:33.846Z,71.00
2022-12-08T16:58:00.957Z,70.90
2022-12-08T17:00:29.470Z,70.90
2022-12-08T17:02:56.883Z,70.70
2022-12-08T17:05:25.416Z,70.60
2022-12-08T17:07:53.372Z,70.30
2022-12-08T17:10:23.181Z,70.00
2022-12-08T17:12:50.651Z,69.70
2022-12-08T17:15:21.986Z,69.40
2022-12-08T17:17:49.464Z,69.40
2022-12-08T17:20:19.639Z,69.40
2022-12-08T17:22:46.989Z,69.40
2022-12-08T17:25:14.328Z,69.30
2022-12-08T17:27:42.028Z,69.10
2022-12-08T17:30:11.777Z,69.00
2022-12-08T17:32:39.079Z,68.90
2022-12-08T17:35:07.027Z,68.80
2022-12-08T17:37:34.797Z,68.80
2022-12-08T17:40:01.952Z,69.00
2022-12-08T17:42:29.021Z,69.00
2022-12-08T17:44:55.892Z,69.20
2022-12-08T17:47:22.795Z,69.10
2022-12-08T17:49:49.689Z,69.30
2022-12-08T17:52:16.545Z,69.30
2022-12-08T17:54:43.403Z,69.40
2022-12-08T17:57:10.357Z,69.40
2022-12-08T17:59:37.333Z,69.30
2022-12-08T18:02:04.503Z,69.40
2022-12-08T18:04:31.725Z,69.60
2022-12-08T18:07:00.766Z,69.50
2022-12-08T18:09:30.396Z,69.50
2022-12-08T18:11:57.578Z,70.40
2022-12-08T18:14:24.494Z,69.70
2022-12-08T18:16:51.481Z,69.70
2022-12-08T18:19:18.534Z,69.80
2022-12-08T18:21:45.547Z,70.00
2022-12-08T18:24:19.106Z,69.90
2022-12-08T18:26:48.961Z,69.80
2022-12-08T18:29:15.919Z,69.90
2022-12-08T18:31:42.955Z,70.00
2022-12-08T18:34:09.839Z,70.10
2022-12-08T18:36:36.666Z,70.10
2022-12-08T18:39:10.202Z,70.30
2022-12-08T18:41:37.733Z,70.10
2022-12-08T18:44:04.791Z,70.10
2022-12-08T18:46:31.787Z,70.10
2022-12-08T18:48:59.457Z,70.10
2022-12-08T18:51:26.456Z,70.20
2022-12-08T18:53:53.399Z,70.30
2022-12-08T18:56:23.003Z,70.40
2022-12-08T18:58:49.993Z,70.60
2022-12-08T19:01:16.989Z,70.70
2022-12-08T19:04:04.751Z,70.90
2022-12-08T19:06:31.369Z,70.90
2022-12-08T19:08:58.313Z,70.80
2022-12-08T19:11:31.215Z,70.70
2022-12-08T19:13:58.093Z,70.60
2022-12-08T19:16:25.101Z,70.30
2022-12-08T19:18:52.077Z,70.40
2022-12-08T19:21:19.777Z,70.10
2022-12-08T19:23:47.610Z,70.00
2022-12-08T19:26:14.572Z,69.70
2022-12-08T19:28:41.539Z,69.60
2022-12-08T19:31:45.930Z,69.30
2022-12-08T19:34:13.925Z,69.00
2022-12-08T19:36:44.182Z,69.00
2022-12-08T19:39:36.714Z,69.10
2022-12-08T19:42:24.646Z,69.20
2022-12-08T19:44:54.401Z,68.90
2022-12-08T19:47:26.658Z,68.90
2022-12-08T19:49:55.150Z,68.90
2022-12-08T19:52:22.603Z,68.50
2022-12-08T19:54:49.525Z,68.20
2022-12-08T19:57:16.384Z,68.00
2022-12-08T19:59:43.323Z,67.70
2022-12-08T20:02:11.342Z,67.60
2022-12-08T20:04:38.421Z,67.50
2022-12-08T20:07:05.293Z,67.40
2022-12-08T20:09:32.229Z,67.20
2022-12-08T20:11:59.197Z,67.10
2022-12-08T20:14:26.027Z,67.00
2022-12-08T20:16:53.044Z,67.20
2022-12-08T20:19:20.057Z,67.30
2022-12-08T20:21:46.983Z,67.00
2022-12-08T20:24:13.942Z,67.20
2022-12-08T20:26:40.812Z,67.10
2022-12-08T20:29:07.787Z,67.60
2022-12-08T20:31:34.843Z,68.20
2022-12-08T20:34:02.168Z,68.20
2022-12-08T20:36:29.103Z,68.20
2022-12-08T20:38:56.252Z,68.60
2022-12-08T20:41:23.826Z,68.80
2022-12-08T20:43:51.552Z,69.20
2022-12-08T20:46:20.218Z,69.80
2022-12-08T20:48:47.281Z,70.30
2022-12-08T20:51:16.444Z,70.60
2022-12-08T20:53:43.502Z,71.00
2022-12-08T20:56:18.361Z,71.30
2022-12-08T20:58:45.428Z,71.70
2022-12-08T21:01:15.721Z,71.90
2022-12-08T21:03:44.135Z,72.00
2022-12-08T21:06:11.537Z,72.20
2022-12-08T21:08:38.924Z,72.20
2022-12-08T21:11:07.697Z,71.80
2022-12-08T21:13:36.720Z,71.50
2022-12-08T21:16:04.913Z,71.50
2022-12-08T21:18:39.025Z,71.60
2022-12-08T21:21:10.316Z,71.60
2022-12-08T21:23:37.266Z,71.60
2022-12-08T21:26:14.373Z,71.40
2022-12-08T21:28:41.346Z,71.50
2022-12-08T21:31:16.950Z,71.80
2022-12-08T21:33:44.093Z,72.00
2022-12-08T21:36:14.357Z,72.20
2022-12-08T21:38:41.527Z,72.40
2022-12-08T21:41:11.317Z,72.40
2022-12-08T21:43:38.816Z,72.60
2022-12-08T21:46:06.002Z,72.80
2022-12-08T21:48:33.381Z,72.70
2022-12-08T21:51:05.316Z,72.50
2022-12-08T21:53:32.401Z,72.20
2022-12-08T21:55:59.243Z,71.90
2022-12-08T21:58:26.448Z,71.80
2022-12-08T22:00:53.531Z,71.60
2022-12-08T22:03:20.746Z,71.30
2022-12-08T22:05:47.788Z,71.30
2022-12-08T22:08:14.914Z,71.60
2022-12-08T22:10:47.643Z,72.80
2022-12-08T22:13:14.584Z,72.10
2022-12-08T22:15:41.573Z,72.10
2022-12-08T22:18:09.124Z,72.10
2022-12-08T22:20:40.868Z,72.20
2022-12-08T22:23:10.660Z,72.20
2022-12-08T22:25:37.627Z,71.90
2022-12-08T22:28:04.738Z,71.70
2022-12-08T22:30:37.235Z,71.60
2022-12-08T22:33:05.793Z,71.50
2022-12-08T22:35:32.674Z,71.50
2022-12-08T22:37:59.558Z,71.60
2022-12-08T22:40:26.360Z,71.40
2022-12-08T22:42:53.136Z,71.40
2022-12-08T22:45:20.102Z,71.50
2022-12-08T22:47:47.024Z,71.60
2022-12-08T22:50:14.015Z,71.60
2022-12-08T22:52:41.064Z,71.60
2022-12-08T22:55:08.604Z,71.90
2022-12-08T22:57:35.513Z,72.30
2022-12-08T23:00:03.561Z,72.40
2022-12-08T23:02:30.571Z,72.30
2022-12-08T23:04:57.774Z,72.40
2022-12-08T23:07:24.805Z,72.40
2022-12-08T23:09:52.110Z,73.10
2022-12-08T23:12:19.136Z,72.20
2022-12-08T23:14:46.265Z,72.40
2022-12-08T23:17:13.731Z,72.40
2022-12-08T23:19:40.818Z,72.30
2022-12-08T23:22:07.966Z,72.30
2022-12-08T23:24:34.781Z,72.20
2022-12-08T23:27:01.695Z,72.00
2022-12-08T23:29:28.641Z,71.90
2022-12-08T23:31:55.619Z,71.70
2022-12-08T23:34:22.684Z,71.90
2022-12-08T23:36:49.891Z,72.00
2022-12-08T23:39:17.216Z,72.00
2022-12-08T23:41:44.424Z,72.20
2022-12-08T23:44:12.327Z,72.20
2022-12-08T23:46:39.293Z,72.00
2022-12-08T23:49:06.301Z,72.00
2022-12-08T23:51:33.137Z,71.90
2022-12-08T23:54:00.246Z,71.90
2022-12-08T23:56:30.439Z,71.90
2022-12-08T23:58:57.678Z,71.90
